createdAt,value
2018-09-26T00:03:15.254Z,56.27
2018-09-26T00:05:43.848Z,56.78
2018-09-26T00:08:12.513Z,56.95
2018-09-26T00:10:41.151Z,56.88
2018-09-26T00:13:09.756Z,56.63
2018-09-26T00:15:38.491Z,56.33
2018-09-26T00:18:07.146Z,56.20
2018-09-26T00:20:35.832Z,56.26
2018-09-26T00:23:04.549Z,56.62
2018-09-26T00:25:33.368Z,56.64
2018-09-26T00:28:02.015Z,56.60
2018-09-26T00:30:30.648Z,56.77
2018-09-26T00:32:59.441Z,56.66
2018-09-26T00:35:28.149Z,56.11
2018-09-26T00:37:56.964Z,56.23
2018-09-26T00:40:25.756Z,56.46
2018-09-26T00:42:54.523Z,56.08
2018-09-26T00:45:23.101Z,56.35
2018-09-26T00:47:51.789Z,56.34
2018-09-26T00:50:20.603Z,56.26
2018-09-26T00:52:49.334Z,56.28
2018-09-26T00:55:17.980Z,56.14
2018-09-26T00:57:46.856Z,56.43
2018-09-26T01:00:15.336Z,56.17
2018-09-26T01:02:44.161Z,56.68
2018-09-26T01:05:12.877Z,56.11
2018-09-26T01:07:41.823Z,56.45
2018-09-26T01:10:10.524Z,56.25
2018-09-26T01:12:39.465Z,55.97
2018-09-26T01:15:08.361Z,56.25
2018-09-26T01:17:36.970Z,56.31
2018-09-26T01:20:05.734Z,56.18
2018-09-26T01:22:34.316Z,56.27
2018-09-26T01:25:02.976Z,56.16
2018-09-26T01:27:34.306Z,55.62
2018-09-26T01:30:04.879Z,55.86
2018-09-26T01:32:33.548Z,56.09
2018-09-26T01:35:02.528Z,56.28
2018-09-26T01:37:31.100Z,56.12
2018-09-26T01:40:00.280Z,55.99
2018-09-26T01:42:29.102Z,56.06
2018-09-26T01:44:57.684Z,55.82
2018-09-26T01:47:26.304Z,55.96
2018-09-26T01:49:54.874Z,55.79
2018-09-26T01:52:23.447Z,55.70
2018-09-26T01:54:52.058Z,56.02
2018-09-26T01:57:20.728Z,56.01
2018-09-26T01:59:49.409Z,56.11
2018-09-26T02:02:18.013Z,55.99
2018-09-26T02:04:46.679Z,56.21
2018-09-26T02:07:15.286Z,55.92
2018-09-26T02:09:43.802Z,56.59
2018-09-26T02:12:12.598Z,56.33
2018-09-26T02:14:41.236Z,56.31
2018-09-26T02:17:09.692Z,56.34
2018-09-26T02:19:38.246Z,56.58
2018-09-26T02:22:06.778Z,56.05
2018-09-26T02:24:35.426Z,56.20
2018-09-26T02:27:04.025Z,56.56
2018-09-26T02:29:32.713Z,56.81
2018-09-26T02:32:01.376Z,56.71
2018-09-26T02:34:29.980Z,56.69
2018-09-26T02:36:58.518Z,56.83
2018-09-26T02:39:27.275Z,56.46
2018-09-26T02:41:55.828Z,56.72
2018-09-26T02:44:24.513Z,56.38
2018-09-26T02:46:53.044Z,56.43
2018-09-26T02:49:21.524Z,56.44
2018-09-26T02:51:50.075Z,56.60
2018-09-26T02:54:18.588Z,56.26
2018-09-26T02:56:47.172Z,56.50
2018-09-26T02:59:15.787Z,56.41
2018-09-26T03:01:44.341Z,56.50
2018-09-26T03:04:13.021Z,56.24
2018-09-26T03:06:41.716Z,55.91
2018-09-26T03:09:11.050Z,56.33
2018-09-26T03:11:39.844Z,55.97
2018-09-26T03:14:08.401Z,55.95
2018-09-26T03:16:37.094Z,55.60
2018-09-26T03:19:05.704Z,55.72
2018-09-26T03:21:34.342Z,55.71
2018-09-26T03:24:02.940Z,56.06
2018-09-26T03:26:31.558Z,55.87
2018-09-26T03:29:00.095Z,56.08
2018-09-26T03:31:28.662Z,55.86
2018-09-26T03:33:57.644Z,55.84
2018-09-26T03:36:26.221Z,55.88
2018-09-26T03:38:54.796Z,56.10
2018-09-26T03:41:23.352Z,56.02
2018-09-26T03:43:51.993Z,55.77
2018-09-26T03:46:20.711Z,56.04
2018-09-26T03:48:49.374Z,56.00
2018-09-26T03:51:17.952Z,56.14
2018-09-26T03:53:46.547Z,56.26
2018-09-26T03:56:15.097Z,55.93
2018-09-26T03:58:44.011Z,56.08
2018-09-26T04:01:12.600Z,55.92
2018-09-26T04:03:41.196Z,55.64
2018-09-26T04:06:09.860Z,55.46
2018-09-26T04:08:38.409Z,55.71
2018-09-26T04:11:07.242Z,55.30
2018-09-26T04:13:35.836Z,55.11
2018-09-26T04:16:04.565Z,54.88
2018-09-26T04:18:33.143Z,54.83
2018-09-26T04:21:01.801Z,54.73
2018-09-26T04:23:30.358Z,54.42
2018-09-26T04:25:58.992Z,54.98
2018-09-26T04:28:27.557Z,55.20
2018-09-26T04:30:56.301Z,55.28
2018-09-26T04:33:24.954Z,55.07
2018-09-26T04:35:53.553Z,55.39
2018-09-26T04:38:22.154Z,55.45
2018-09-26T04:40:50.834Z,55.36
2018-09-26T04:43:19.391Z,55.17
2018-09-26T04:45:47.944Z,55.03
2018-09-26T04:48:16.641Z,54.77
2018-09-26T04:50:45.326Z,54.98
2018-09-26T04:53:13.818Z,54.70
2018-09-26T04:55:42.424Z,54.77
2018-09-26T04:58:10.956Z,54.65
2018-09-26T05:00:39.532Z,54.44
2018-09-26T05:03:08.148Z,54.24
2018-09-26T05:05:36.877Z,53.88
2018-09-26T05:08:05.563Z,53.87
2018-09-26T05:10:34.184Z,53.70
2018-09-26T05:13:02.765Z,53.86
2018-09-26T05:15:31.282Z,52.79
2018-09-26T05:17:59.868Z,52.17
2018-09-26T05:20:28.409Z,51.66
2018-09-26T05:22:57.300Z,51.50
2018-09-26T05:25:25.951Z,51.20
2018-09-26T05:27:54.655Z,50.75
2018-09-26T05:30:23.349Z,49.87
2018-09-26T05:32:51.943Z,50.25
2018-09-26T05:35:20.594Z,49.63
2018-09-26T05:37:49.332Z,49.82
2018-09-26T05:40:17.977Z,49.29
2018-09-26T05:42:46.567Z,49.60
2018-09-26T05:45:15.133Z,49.67
2018-09-26T05:47:43.943Z,49.42
2018-09-26T05:50:12.733Z,49.39
2018-09-26T05:52:41.669Z,49.25
2018-09-26T05:55:10.773Z,48.77
2018-09-26T05:57:39.895Z,48.84
2018-09-26T06:00:09.147Z,48.52
2018-09-26T06:02:38.480Z,48.36
2018-09-26T06:05:07.642Z,48.21
2018-09-26T06:07:38.214Z,48.29
2018-09-26T06:10:07.289Z,48.12
2018-09-26T06:12:37.644Z,47.70
2018-09-26T06:15:06.766Z,46.52
2018-09-26T06:17:36.063Z,46.48
2018-09-26T06:20:05.263Z,46.50
2018-09-26T06:22:34.299Z,46.46
2018-09-26T06:25:03.554Z,45.95
2018-09-26T06:27:34.546Z,45.26
2018-09-26T06:30:03.802Z,45.17
2018-09-26T06:32:33.262Z,44.89
2018-09-26T06:35:08.294Z,44.07
2018-09-26T06:37:53.801Z,43.72
2018-09-26T06:40:22.470Z,42.26
2018-09-26T06:43:01.314Z,41.89
2018-09-26T06:45:29.923Z,40.98
2018-09-26T06:47:58.510Z,40.24
2018-09-26T06:50:27.169Z,40.04
2018-09-26T06:53:03.740Z,39.35
2018-09-26T06:55:38.624Z,39.61
2018-09-26T06:58:07.254Z,39.47
2018-09-26T07:00:35.867Z,38.82
2018-09-26T07:03:05.061Z,38.15
2018-09-26T07:05:33.566Z,36.07
2018-09-26T07:08:02.374Z,35.01
2018-09-26T07:10:30.873Z,35.57
2018-09-26T07:12:59.762Z,34.45
2018-09-26T07:15:28.258Z,33.02
2018-09-26T07:17:56.798Z,33.73
2018-09-26T07:20:25.376Z,33.22
2018-09-26T07:22:54.046Z,33.09
2018-09-26T07:25:22.706Z,32.15
2018-09-26T07:27:51.366Z,31.68
2018-09-26T07:30:19.920Z,31.62
2018-09-26T07:32:48.563Z,31.53
2018-09-26T07:35:17.188Z,31.63
2018-09-26T07:37:45.839Z,31.41
2018-09-26T07:40:14.396Z,30.89
2018-09-26T07:42:42.933Z,29.99
2018-09-26T07:45:19.258Z,28.85
2018-09-26T07:47:48.520Z,29.12
2018-09-26T07:50:17.054Z,29.41
2018-09-26T07:52:45.940Z,29.23
2018-09-26T07:55:14.585Z,29.72
2018-09-26T07:57:43.180Z,28.70
2018-09-26T08:00:11.732Z,27.94
2018-09-26T08:02:40.313Z,27.00
2018-09-26T08:05:09.613Z,27.07
2018-09-26T08:07:38.316Z,26.54
2018-09-26T08:10:06.952Z,25.61
2018-09-26T08:12:35.651Z,25.58
2018-09-26T08:15:04.299Z,25.37
2018-09-26T08:17:32.933Z,25.27
2018-09-26T08:20:01.690Z,24.62
2018-09-26T08:22:30.468Z,24.98
2018-09-26T08:24:59.003Z,26.04
2018-09-26T08:27:27.586Z,24.80
2018-09-26T08:29:56.210Z,25.29
2018-09-26T08:32:24.711Z,24.61
2018-09-26T08:34:53.222Z,24.65
2018-09-26T08:37:21.836Z,24.54
2018-09-26T08:39:50.362Z,24.37
2018-09-26T08:42:19.019Z,23.77
2018-09-26T08:44:47.585Z,24.13
2018-09-26T08:47:16.258Z,24.74
2018-09-26T08:49:44.926Z,22.95
2018-09-26T08:52:13.542Z,23.43
2018-09-26T08:54:42.263Z,21.80
2018-09-26T08:57:10.930Z,21.39
2018-09-26T08:59:39.921Z,21.11
2018-09-26T09:02:08.566Z,20.87
2018-09-26T09:04:37.226Z,20.39
2018-09-26T09:07:06.005Z,18.35
2018-09-26T09:09:34.805Z,17.74
2018-09-26T09:12:04.162Z,18.35
2018-09-26T09:14:32.928Z,18.31
2018-09-26T09:17:01.454Z,17.36
2018-09-26T09:19:30.078Z,17.63
2018-09-26T09:21:58.617Z,17.82
2018-09-26T09:24:27.229Z,17.29
2018-09-26T09:26:55.811Z,16.56
2018-09-26T09:29:24.379Z,15.97
2018-09-26T09:31:52.894Z,16.43
2018-09-26T09:34:21.489Z,17.37
2018-09-26T09:36:50.069Z,17.46
2018-09-26T09:39:18.500Z,18.41
2018-09-26T09:41:46.935Z,18.64
2018-09-26T09:44:15.495Z,19.10
2018-09-26T09:46:43.943Z,17.41
2018-09-26T09:49:12.427Z,17.23
2018-09-26T09:51:41.047Z,17.21
2018-09-26T09:54:09.595Z,17.52
2018-09-26T09:56:38.074Z,17.66
2018-09-26T09:59:06.701Z,18.51
2018-09-26T10:01:35.197Z,19.05
2018-09-26T10:04:03.668Z,20.37
2018-09-26T10:06:32.162Z,20.29
2018-09-26T10:09:00.748Z,20.65
2018-09-26T10:11:29.269Z,19.10
2018-09-26T10:13:57.707Z,18.26
2018-09-26T10:16:26.159Z,18.01
2018-09-26T10:18:54.661Z,17.79
2018-09-26T10:21:23.392Z,17.72
2018-09-26T10:23:51.860Z,16.61
2018-09-26T10:26:20.321Z,15.88
2018-09-26T10:28:48.797Z,15.76
2018-09-26T10:31:17.261Z,14.64
2018-09-26T10:33:45.749Z,13.94
2018-09-26T10:36:14.261Z,14.10
2018-09-26T10:38:42.866Z,13.11
2018-09-26T10:41:11.450Z,13.09
2018-09-26T10:43:39.967Z,11.80
2018-09-26T10:46:08.996Z,11.67
2018-09-26T10:48:37.477Z,10.80
2018-09-26T10:51:06.173Z,9.94
2018-09-26T10:53:34.615Z,10.50
2018-09-26T10:56:03.211Z,10.44
2018-09-26T10:58:31.712Z,10.46
2018-09-26T11:01:00.415Z,9.89
2018-09-26T11:03:29.197Z,9.26
2018-09-26T11:05:58.086Z,8.96
2018-09-26T11:08:26.734Z,8.45
2018-09-26T11:10:55.296Z,7.88
2018-09-26T11:13:23.973Z,7.93
2018-09-26T11:15:52.728Z,7.43
2018-09-26T11:18:21.355Z,7.19
2018-09-26T11:20:50.098Z,6.89
2018-09-26T11:23:18.656Z,6.11
2018-09-26T11:25:47.131Z,6.20
2018-09-26T11:28:15.917Z,5.48
2018-09-26T11:30:44.447Z,5.79
2018-09-26T11:33:13.028Z,4.74
2018-09-26T11:35:41.683Z,4.45
2018-09-26T11:38:10.310Z,5.24
2018-09-26T11:40:38.896Z,4.77
2018-09-26T11:43:07.510Z,4.19
2018-09-26T11:45:36.037Z,4.36
2018-09-26T11:48:04.578Z,4.49
2018-09-26T11:50:33.125Z,4.83
2018-09-26T11:53:01.724Z,5.15
2018-09-26T11:55:30.262Z,5.52
2018-09-26T11:57:58.978Z,5.67
2018-09-26T12:00:27.556Z,6.15
2018-09-26T12:02:56.202Z,5.89
2018-09-26T12:05:24.818Z,6.54
2018-09-26T12:07:53.444Z,7.53
2018-09-26T12:10:22.146Z,7.86
2018-09-26T12:12:50.649Z,10.13
2018-09-26T12:15:19.351Z,9.90
2018-09-26T12:17:47.950Z,10.87
2018-09-26T12:20:16.790Z,11.50
2018-09-26T12:22:45.396Z,13.31
2018-09-26T12:25:14.167Z,13.65
2018-09-26T12:27:43.764Z,13.60
2018-09-26T12:30:12.695Z,14.22
2018-09-26T12:32:41.419Z,14.26
2018-09-26T12:35:10.406Z,15.67
2018-09-26T12:37:39.164Z,16.16
2018-09-26T12:40:08.570Z,15.90
2018-09-26T12:42:37.623Z,16.21
2018-09-26T12:45:06.465Z,17.33
2018-09-26T12:47:35.232Z,17.20
2018-09-26T12:50:04.342Z,17.77
2018-09-26T12:52:33.225Z,17.75
2018-09-26T12:55:02.045Z,19.11
2018-09-26T12:57:30.694Z,18.98
2018-09-26T12:59:59.883Z,19.11
2018-09-26T13:02:28.792Z,19.19
2018-09-26T13:04:59.380Z,18.75
2018-09-26T13:07:28.004Z,18.69
2018-09-26T13:09:56.860Z,18.76
2018-09-26T13:12:25.672Z,19.81
2018-09-26T13:14:54.325Z,19.90
2018-09-26T13:17:23.109Z,19.48
2018-09-26T13:19:52.085Z,20.35
2018-09-26T13:22:21.009Z,20.52
2018-09-26T13:24:49.673Z,19.84
2018-09-26T13:27:18.840Z,19.91
2018-09-26T13:29:47.904Z,20.18
2018-09-26T13:32:17.400Z,20.56
2018-09-26T13:34:46.217Z,19.83
2018-09-26T13:37:14.967Z,20.00
2018-09-26T13:39:43.701Z,20.11
2018-09-26T13:42:12.651Z,21.09
2018-09-26T13:44:41.391Z,21.01
2018-09-26T13:47:10.233Z,20.43
2018-09-26T13:49:38.995Z,21.18
2018-09-26T13:52:07.778Z,20.45
2018-09-26T13:54:37.027Z,20.24
2018-09-26T13:57:05.917Z,20.25
2018-09-26T13:59:34.807Z,20.42
2018-09-26T14:02:03.490Z,20.52
2018-09-26T14:04:32.220Z,21.20
2018-09-26T14:07:00.944Z,21.39
2018-09-26T14:09:29.632Z,21.36
2018-09-26T14:11:58.366Z,21.15
2018-09-26T14:14:27.150Z,21.68
2018-09-26T14:16:55.769Z,21.95
2018-09-26T14:19:30.061Z,21.30
2018-09-26T14:21:58.986Z,20.66
2018-09-26T14:24:27.890Z,21.01
2018-09-26T14:26:56.753Z,21.04
2018-09-26T14:29:25.741Z,20.40
2018-09-26T14:31:54.548Z,21.69
2018-09-26T14:34:23.246Z,21.71
2018-09-26T14:36:52.237Z,21.88
2018-09-26T14:39:21.226Z,21.64
2018-09-26T14:41:49.916Z,20.70
2018-09-26T14:44:18.667Z,20.81
2018-09-26T14:46:47.478Z,21.12
2018-09-26T14:49:16.365Z,20.63
2018-09-26T14:51:46.204Z,21.51
2018-09-26T14:54:15.152Z,21.60
2018-09-26T14:56:43.839Z,20.36
2018-09-26T14:59:12.845Z,20.90
2018-09-26T15:01:41.638Z,21.34
2018-09-26T15:04:10.379Z,21.07
2018-09-26T15:06:39.400Z,21.50
2018-09-26T15:09:08.192Z,21.73
2018-09-26T15:11:36.964Z,21.93
2018-09-26T15:14:05.775Z,21.82
2018-09-26T15:16:34.570Z,21.80
2018-09-26T15:19:03.441Z,22.87
2018-09-26T15:21:32.197Z,21.75
2018-09-26T15:24:01.056Z,22.45
2018-09-26T15:26:30.221Z,22.07
2018-09-26T15:28:58.929Z,22.34
2018-09-26T15:31:27.832Z,22.72
2018-09-26T15:33:56.667Z,22.76
2018-09-26T15:36:25.778Z,23.02
2018-09-26T15:38:54.706Z,23.22
2018-09-26T15:41:23.644Z,23.62
2018-09-26T15:43:53.022Z,23.98
2018-09-26T15:46:22.017Z,23.62
2018-09-26T15:48:50.953Z,23.31
2018-09-26T15:51:19.857Z,23.82
2018-09-26T15:53:48.394Z,23.25
2018-09-26T15:56:17.098Z,23.42
2018-09-26T15:58:45.757Z,24.54
2018-09-26T16:01:14.709Z,23.92
2018-09-26T16:03:48.770Z,23.95
2018-09-26T16:06:17.920Z,24.26
2018-09-26T16:08:46.501Z,24.62
2018-09-26T16:11:15.129Z,23.92
2018-09-26T16:13:43.673Z,24.13
2018-09-26T16:16:12.334Z,24.50
2018-09-26T16:18:40.926Z,25.01
2018-09-26T16:21:09.620Z,24.75
2018-09-26T16:23:38.200Z,25.17
2018-09-26T16:26:06.856Z,25.20
2018-09-26T16:28:35.785Z,25.81
2018-09-26T16:31:04.441Z,25.49
2018-09-26T16:33:33.173Z,26.32
2018-09-26T16:36:01.807Z,26.36
2018-09-26T16:38:30.452Z,26.20
2018-09-26T16:40:59.224Z,26.02
2018-09-26T16:43:27.951Z,26.92
2018-09-26T16:45:56.606Z,26.28
2018-09-26T16:48:25.600Z,26.21
2018-09-26T16:50:54.277Z,26.91
2018-09-26T16:53:22.886Z,26.59
2018-09-26T16:55:51.650Z,27.17
2018-09-26T16:58:20.490Z,27.19
2018-09-26T17:00:49.307Z,26.96
2018-09-26T17:03:18.007Z,27.44
2018-09-26T17:05:46.723Z,27.21
2018-09-26T17:08:15.377Z,28.00
2018-09-26T17:10:43.934Z,27.50
2018-09-26T17:13:12.549Z,28.18
2018-09-26T17:15:41.178Z,27.88
2018-09-26T17:18:09.863Z,28.66
2018-09-26T17:20:38.677Z,28.58
2018-09-26T17:23:07.258Z,27.78
2018-09-26T17:25:35.908Z,28.70
2018-09-26T17:28:04.572Z,28.03
2018-09-26T17:30:34.009Z,28.85
2018-09-26T17:33:02.861Z,28.88
2018-09-26T17:35:32.002Z,28.56
2018-09-26T17:38:00.875Z,28.83
2018-09-26T17:40:29.560Z,28.83
2018-09-26T17:42:58.305Z,29.27
2018-09-26T17:45:26.954Z,29.85
2018-09-26T17:47:55.694Z,30.21
2018-09-26T17:50:24.542Z,30.69
2018-09-26T17:52:53.366Z,31.71
2018-09-26T17:55:22.124Z,32.04
2018-09-26T17:57:51.047Z,32.62
2018-09-26T18:00:19.924Z,32.02
2018-09-26T18:02:49.715Z,32.17
2018-09-26T18:05:19.047Z,32.85
2018-09-26T18:07:48.588Z,33.24
2018-09-26T18:10:17.306Z,33.14
2018-09-26T18:12:46.394Z,33.47
2018-09-26T18:15:15.088Z,34.15
2018-09-26T18:17:43.789Z,34.21
2018-09-26T18:20:12.391Z,33.89
2018-09-26T18:22:41.338Z,34.58
2018-09-26T18:25:10.338Z,34.95
2018-09-26T18:27:39.198Z,35.00
2018-09-26T18:30:07.932Z,34.86
2018-09-26T18:32:36.460Z,35.30
2018-09-26T18:35:05.382Z,35.49
2018-09-26T18:37:34.181Z,35.03
2018-09-26T18:40:02.999Z,35.13
2018-09-26T18:42:31.987Z,36.00
2018-09-26T18:45:02.238Z,35.98
2018-09-26T18:47:30.920Z,35.91
2018-09-26T18:50:00.033Z,36.26
2018-09-26T18:52:28.925Z,36.47
2018-09-26T18:55:01.725Z,36.88
2018-09-26T18:57:30.408Z,37.14
2018-09-26T18:59:59.081Z,37.04
2018-09-26T19:02:27.779Z,37.27
2018-09-26T19:04:56.909Z,37.09
2018-09-26T19:07:25.522Z,36.95
2018-09-26T19:09:54.153Z,37.50
2018-09-26T19:12:22.872Z,37.40
2018-09-26T19:14:51.828Z,38.63
2018-09-26T19:17:20.446Z,38.59
2018-09-26T19:19:49.090Z,38.50
2018-09-26T19:22:17.855Z,38.81
2018-09-26T19:24:46.617Z,38.94
2018-09-26T19:27:15.398Z,39.00
2018-09-26T19:29:44.160Z,39.03
2018-09-26T19:32:12.752Z,39.49
2018-09-26T19:34:41.312Z,40.13
2018-09-26T19:37:09.897Z,39.89
2018-09-26T19:39:38.451Z,40.15
2018-09-26T19:42:07.113Z,40.40
2018-09-26T19:44:35.598Z,41.09
2018-09-26T19:47:04.128Z,40.66
2018-09-26T19:49:32.756Z,40.91
2018-09-26T19:52:01.398Z,41.06
2018-09-26T19:54:29.936Z,41.02
2018-09-26T19:56:58.704Z,41.54
2018-09-26T19:59:27.432Z,41.24
2018-09-26T20:01:56.113Z,41.34
2018-09-26T20:04:24.722Z,41.36
2018-09-26T20:06:53.391Z,42.35
2018-09-26T20:09:21.948Z,42.32
2018-09-26T20:11:50.548Z,42.42
2018-09-26T20:14:19.170Z,42.37
2018-09-26T20:16:47.789Z,42.67
2018-09-26T20:19:16.370Z,42.50
2018-09-26T20:21:45.008Z,42.90
2018-09-26T20:24:13.694Z,43.11
2018-09-26T20:26:42.313Z,42.98
2018-09-26T20:29:10.901Z,43.89
2018-09-26T20:31:39.442Z,43.68
2018-09-26T20:34:08.232Z,43.53
2018-09-26T20:36:36.787Z,44.10
2018-09-26T20:39:08.420Z,44.50
2018-09-26T20:41:37.136Z,44.73
2018-09-26T20:44:05.776Z,44.84
2018-09-26T20:46:34.493Z,44.06
2018-09-26T20:49:03.162Z,45.06
2018-09-26T20:51:32.082Z,45.25
2018-09-26T20:54:00.716Z,44.77
2018-09-26T20:56:29.305Z,44.86
2018-09-26T20:58:57.950Z,44.86
2018-09-26T21:01:26.550Z,45.64
2018-09-26T21:03:55.156Z,45.68
2018-09-26T21:06:23.876Z,45.01
2018-09-26T21:08:52.533Z,45.93
2018-09-26T21:11:21.320Z,45.91
2018-09-26T21:13:49.931Z,45.92
2018-09-26T21:16:18.568Z,46.18
2018-09-26T21:18:47.220Z,46.05
2018-09-26T21:21:15.851Z,46.64
2018-09-26T21:23:44.537Z,46.33
2018-09-26T21:26:13.160Z,46.50
2018-09-26T21:28:41.748Z,46.96
2018-09-26T21:31:10.454Z,46.62
2018-09-26T21:33:39.146Z,47.30
2018-09-26T21:36:07.720Z,47.55
2018-09-26T21:38:36.444Z,47.15
2018-09-26T21:41:05.069Z,47.64
2018-09-26T21:43:33.827Z,47.50
2018-09-26T21:46:02.536Z,47.64
2018-09-26T21:48:31.060Z,47.88
2018-09-26T21:50:59.779Z,48.08
2018-09-26T21:53:28.457Z,48.49
2018-09-26T21:55:57.019Z,48.24
2018-09-26T21:58:25.568Z,48.24
2018-09-26T22:00:59.533Z,48.03
2018-09-26T22:03:28.151Z,47.95
2018-09-26T22:05:56.710Z,48.62
2018-09-26T22:08:25.317Z,49.12
2018-09-26T22:10:53.907Z,48.55
2018-09-26T22:13:23.052Z,48.58
2018-09-26T22:15:51.992Z,48.49
2018-09-26T22:18:20.928Z,48.60
2018-09-26T22:20:49.599Z,48.60
2018-09-26T22:23:18.503Z,48.74
2018-09-26T22:25:47.325Z,49.06
2018-09-26T22:28:15.942Z,48.81
2018-09-26T22:30:45.518Z,49.63
2018-09-26T22:33:14.341Z,49.08
2018-09-26T22:35:43.103Z,49.55
2018-09-26T22:38:11.964Z,49.75
2018-09-26T22:40:40.766Z,49.50
2018-09-26T22:43:09.607Z,49.25
2018-09-26T22:45:38.440Z,49.88
2018-09-26T22:48:07.276Z,50.08
2018-09-26T22:50:36.056Z,50.13
2018-09-26T22:53:04.820Z,49.79
2018-09-26T22:55:33.441Z,50.30
2018-09-26T22:58:02.136Z,49.91
2018-09-26T23:00:30.763Z,50.02
2018-09-26T23:02:59.462Z,50.35
2018-09-26T23:05:28.209Z,50.03
2018-09-26T23:07:56.925Z,50.23
2018-09-26T23:10:25.570Z,50.51
2018-09-26T23:12:54.185Z,50.04
2018-09-26T23:15:22.997Z,50.46
2018-09-26T23:17:51.580Z,50.29
2018-09-26T23:20:20.305Z,50.68
2018-09-26T23:22:49.031Z,50.53
2018-09-26T23:25:17.763Z,50.34
2018-09-26T23:27:46.639Z,50.67
2018-09-26T23:30:15.287Z,51.09
2018-09-26T23:32:43.882Z,50.87
2018-09-26T23:35:12.488Z,50.75
2018-09-26T23:37:41.097Z,50.77
2018-09-26T23:40:09.676Z,50.84
2018-09-26T23:42:38.197Z,51.24
2018-09-26T23:45:06.866Z,50.94
2018-09-26T23:47:35.435Z,51.29
2018-09-26T23:50:04.071Z,51.35
2018-09-26T23:52:32.662Z,50.96
2018-09-26T23:55:01.216Z,51.24
2018-09-26T23:57:29.790Z,51.60
2018-09-26T23:59:58.304Z,51.44
